sensor_id;sensor_type;location;lat;lon;timestamp;P1;durP1;ratioP1;P2;durP2;ratioP2
36663;SDS011;53333;51.976;20.144;2024-03-08T00:01:58;151.45;;;58.22;;
36663;SDS011;53333;51.976;20.144;2024-03-08T00:04:31;143.93;;;56.80;;
36663;SDS011;53333;51.976;20.144;2024-03-08T00:07:04;138.05;;;55.10;;
36663;SDS011;53333;51.976;20.144;2024-03-08T00:09:39;138.57;;;56.95;;
36663;SDS011;53333;51.976;20.144;2024-03-08T00:12:12;150.38;;;58.15;;
36663;SDS011;53333;51.976;20.144;2024-03-08T00:14:45;139.30;;;57.38;;
36663;SDS011;53333;51.976;20.144;2024-03-08T00:17:18;134.23;;;55.65;;
36663;SDS011;53333;51.976;20.144;2024-03-08T00:19:50;159.10;;;60.08;;
36663;SDS011;53333;51.976;20.144;2024-03-08T00:22:23;186.18;;;64.38;;
36663;SDS011;53333;51.976;20.144;2024-03-08T00:24:58;158.77;;;60.20;;
36663;SDS011;53333;51.976;20.144;2024-03-08T00:27:31;148.73;;;56.60;;
36663;SDS011;53333;51.976;20.144;2024-03-08T00:30:04;131.43;;;50.95;;
36663;SDS011;53333;51.976;20.144;2024-03-08T00:32:38;135.07;;;54.75;;
36663;SDS011;53333;51.976;20.144;2024-03-08T00:35:11;155.05;;;58.63;;
36663;SDS011;53333;51.976;20.144;2024-03-08T00:37:44;161.90;;;62.35;;
36663;SDS011;53333;51.976;20.144;2024-03-08T00:40:21;185.50;;;69.85;;
36663;SDS011;53333;51.976;20.144;2024-03-08T00:42:54;200.93;;;70.28;;
36663;SDS011;53333;51.976;20.144;2024-03-08T00:45:27;221.27;;;74.50;;
36663;SDS011;53333;51.976;20.144;2024-03-08T00:47:59;202.77;;;78.10;;
36663;SDS011;53333;51.976;20.144;2024-03-08T00:50:32;222.40;;;79.07;;
36663;SDS011;53333;51.976;20.144;2024-03-08T00:53:06;221.88;;;79.63;;
36663;SDS011;53333;51.976;20.144;2024-03-08T00:55:40;227.98;;;78.55;;
36663;SDS011;53333;51.976;20.144;2024-03-08T00:58:13;225.77;;;77.43;;
36663;SDS011;53333;51.976;20.144;2024-03-08T01:00:46;202.38;;;72.72;;
36663;SDS011;53333;51.976;20.144;2024-03-08T01:03:19;187.27;;;70.57;;
36663;SDS011;53333;51.976;20.144;2024-03-08T01:05:51;193.18;;;69.32;;
36663;SDS011;53333;51.976;20.144;2024-03-08T01:08:24;176.25;;;70.07;;
36663;SDS011;53333;51.976;20.144;2024-03-08T01:10:58;145.43;;;59.63;;
36663;SDS011;53333;51.976;20.144;2024-03-08T01:13:31;146.90;;;55.08;;
36663;SDS011;53333;51.976;20.144;2024-03-08T01:16:04;134.50;;;51.80;;
36663;SDS011;53333;51.976;20.144;2024-03-08T01:18:38;122.82;;;48.85;;
36663;SDS011;53333;51.976;20.144;2024-03-08T01:21:11;138.13;;;52.15;;
36663;SDS011;53333;51.976;20.144;2024-03-08T01:23:44;125.28;;;54.97;;
36663;SDS011;53333;51.976;20.144;2024-03-08T01:26:18;149.18;;;54.78;;
36663;SDS011;53333;51.976;20.144;2024-03-08T01:28:51;136.80;;;55.90;;
36663;SDS011;53333;51.976;20.144;2024-03-08T01:31:24;140.40;;;57.08;;
36663;SDS011;53333;51.976;20.144;2024-03-08T01:33:56;135.75;;;53.08;;
36663;SDS011;53333;51.976;20.144;2024-03-08T01:36:29;131.43;;;55.53;;
36663;SDS011;53333;51.976;20.144;2024-03-08T01:39:02;141.23;;;55.88;;
36663;SDS011;53333;51.976;20.144;2024-03-08T01:41:40;152.48;;;57.28;;
36663;SDS011;53333;51.976;20.144;2024-03-08T01:44:13;153.43;;;57.83;;
36663;SDS011;53333;51.976;20.144;2024-03-08T01:46:50;156.63;;;57.20;;
36663;SDS011;53333;51.976;20.144;2024-03-08T01:49:25;144.25;;;56.60;;
36663;SDS011;53333;51.976;20.144;2024-03-08T01:51:59;134.95;;;53.83;;
36663;SDS011;53333;51.976;20.144;2024-03-08T01:54:33;142.23;;;55.97;;
36663;SDS011;53333;51.976;20.144;2024-03-08T01:57:08;156.18;;;59.78;;
36663;SDS011;53333;51.976;20.144;2024-03-08T01:59:41;174.02;;;59.38;;
36663;SDS011;53333;51.976;20.144;2024-03-08T02:02:14;161.75;;;58.17;;
36663;SDS011;53333;51.976;20.144;2024-03-08T02:04:51;169.48;;;59.40;;
36663;SDS011;53333;51.976;20.144;2024-03-08T02:07:24;162.27;;;56.15;;
36663;SDS011;53333;51.976;20.144;2024-03-08T02:09:57;150.48;;;59.53;;
36663;SDS011;53333;51.976;20.144;2024-03-08T02:12:31;155.82;;;58.22;;
36663;SDS011;53333;51.976;20.144;2024-03-08T02:15:05;169.88;;;64.07;;
36663;SDS011;53333;51.976;20.144;2024-03-08T02:20:12;161.57;;;58.80;;
36663;SDS011;53333;51.976;20.144;2024-03-08T02:22:47;164.15;;;60.45;;
36663;SDS011;53333;51.976;20.144;2024-03-08T02:25:20;151.90;;;59.42;;
36663;SDS011;53333;51.976;20.144;2024-03-08T02:27:53;160.10;;;67.68;;
36663;SDS011;53333;51.976;20.144;2024-03-08T02:30:26;164.40;;;65.75;;
36663;SDS011;53333;51.976;20.144;2024-03-08T02:33:01;154.48;;;64.85;;
36663;SDS011;53333;51.976;20.144;2024-03-08T02:35:34;147.83;;;62.07;;
36663;SDS011;53333;51.976;20.144;2024-03-08T02:38:08;162.32;;;61.25;;
36663;SDS011;53333;51.976;20.144;2024-03-08T02:40:41;131.85;;;57.40;;
36663;SDS011;53333;51.976;20.144;2024-03-08T02:43:15;128.00;;;54.13;;
36663;SDS011;53333;51.976;20.144;2024-03-08T02:45:49;133.52;;;52.17;;
36663;SDS011;53333;51.976;20.144;2024-03-08T02:48:24;134.63;;;53.05;;
36663;SDS011;53333;51.976;20.144;2024-03-08T02:50:57;130.10;;;53.10;;
36663;SDS011;53333;51.976;20.144;2024-03-08T02:53:31;125.57;;;53.83;;
36663;SDS011;53333;51.976;20.144;2024-03-08T02:56:04;128.35;;;51.97;;
36663;SDS011;53333;51.976;20.144;2024-03-08T02:58:39;129.32;;;54.53;;
36663;SDS011;53333;51.976;20.144;2024-03-08T03:01:12;122.90;;;54.33;;
36663;SDS011;53333;51.976;20.144;2024-03-08T03:03:45;137.23;;;50.72;;
36663;SDS011;53333;51.976;20.144;2024-03-08T03:06:19;124.35;;;50.75;;
36663;SDS011;53333;51.976;20.144;2024-03-08T03:08:54;121.80;;;52.03;;
36663;SDS011;53333;51.976;20.144;2024-03-08T03:11:28;131.32;;;53.33;;
36663;SDS011;53333;51.976;20.144;2024-03-08T03:14:01;130.85;;;53.03;;
36663;SDS011;53333;51.976;20.144;2024-03-08T03:16:34;138.82;;;51.53;;
36663;SDS011;53333;51.976;20.144;2024-03-08T03:19:07;132.10;;;52.92;;
36663;SDS011;53333;51.976;20.144;2024-03-08T03:21:40;127.93;;;50.95;;
36663;SDS011;53333;51.976;20.144;2024-03-08T03:24:15;123.13;;;51.83;;
36663;SDS011;53333;51.976;20.144;2024-03-08T03:26:49;134.68;;;52.90;;
36663;SDS011;53333;51.976;20.144;2024-03-08T03:29:23;131.15;;;52.78;;
36663;SDS011;53333;51.976;20.144;2024-03-08T03:31:56;137.68;;;56.92;;
36663;SDS011;53333;51.976;20.144;2024-03-08T03:34:29;148.73;;;59.22;;
36663;SDS011;53333;51.976;20.144;2024-03-08T03:37:02;150.88;;;56.80;;
36663;SDS011;53333;51.976;20.144;2024-03-08T03:39:36;142.68;;;56.67;;
36663;SDS011;53333;51.976;20.144;2024-03-08T03:42:19;152.45;;;60.47;;
36663;SDS011;53333;51.976;20.144;2024-03-08T03:44:52;165.57;;;60.85;;
36663;SDS011;53333;51.976;20.144;2024-03-08T03:47:25;160.15;;;61.20;;
36663;SDS011;53333;51.976;20.144;2024-03-08T03:49:58;163.48;;;67.13;;
36663;SDS011;53333;51.976;20.144;2024-03-08T03:52:33;178.60;;;69.22;;
36663;SDS011;53333;51.976;20.144;2024-03-08T03:55:07;186.88;;;67.35;;
36663;SDS011;53333;51.976;20.144;2024-03-08T03:57:43;200.55;;;71.85;;
36663;SDS011;53333;51.976;20.144;2024-03-08T04:00:17;177.73;;;70.78;;
36663;SDS011;53333;51.976;20.144;2024-03-08T04:02:50;172.00;;;68.18;;
36663;SDS011;53333;51.976;20.144;2024-03-08T04:05:23;174.23;;;69.10;;
36663;SDS011;53333;51.976;20.144;2024-03-08T04:08:02;192.70;;;72.30;;
36663;SDS011;53333;51.976;20.144;2024-03-08T04:10:36;173.73;;;67.13;;
36663;SDS011;53333;51.976;20.144;2024-03-08T04:13:09;167.15;;;67.60;;
36663;SDS011;53333;51.976;20.144;2024-03-08T04:15:42;174.40;;;69.05;;
36663;SDS011;53333;51.976;20.144;2024-03-08T04:18:20;185.48;;;73.75;;
36663;SDS011;53333;51.976;20.144;2024-03-08T04:20:53;174.80;;;70.17;;
36663;SDS011;53333;51.976;20.144;2024-03-08T04:23:26;187.27;;;68.85;;
36663;SDS011;53333;51.976;20.144;2024-03-08T04:26:01;183.60;;;69.13;;
36663;SDS011;53333;51.976;20.144;2024-03-08T04:28:35;160.77;;;64.13;;
36663;SDS011;53333;51.976;20.144;2024-03-08T04:31:11;168.48;;;64.72;;
36663;SDS011;53333;51.976;20.144;2024-03-08T04:33:43;159.30;;;60.50;;
36663;SDS011;53333;51.976;20.144;2024-03-08T04:36:17;149.23;;;58.63;;
36663;SDS011;53333;51.976;20.144;2024-03-08T04:38:50;134.33;;;58.50;;
36663;SDS011;53333;51.976;20.144;2024-03-08T04:41:24;157.80;;;57.03;;
36663;SDS011;53333;51.976;20.144;2024-03-08T04:46:30;130.65;;;53.67;;
36663;SDS011;53333;51.976;20.144;2024-03-08T04:49:02;142.90;;;55.90;;
36663;SDS011;53333;51.976;20.144;2024-03-08T04:51:35;139.52;;;55.78;;
36663;SDS011;53333;51.976;20.144;2024-03-08T04:54:08;146.88;;;58.25;;
36663;SDS011;53333;51.976;20.144;2024-03-08T04:56:43;131.85;;;54.67;;
36663;SDS011;53333;51.976;20.144;2024-03-08T05:01:48;141.07;;;53.70;;
36663;SDS011;53333;51.976;20.144;2024-03-08T05:04:21;132.27;;;52.78;;
36663;SDS011;53333;51.976;20.144;2024-03-08T05:06:56;133.20;;;55.15;;
36663;SDS011;53333;51.976;20.144;2024-03-08T05:09:32;139.05;;;53.58;;
36663;SDS011;53333;51.976;20.144;2024-03-08T05:12:08;127.55;;;51.60;;
36663;SDS011;53333;51.976;20.144;2024-03-08T05:14:41;125.00;;;53.05;;
36663;SDS011;53333;51.976;20.144;2024-03-08T05:17:14;124.73;;;55.43;;
36663;SDS011;53333;51.976;20.144;2024-03-08T05:19:47;123.82;;;55.88;;
36663;SDS011;53333;51.976;20.144;2024-03-08T05:22:20;134.27;;;57.60;;
36663;SDS011;53333;51.976;20.144;2024-03-08T05:24:53;147.48;;;58.17;;
36663;SDS011;53333;51.976;20.144;2024-03-08T05:27:27;157.50;;;60.70;;
36663;SDS011;53333;51.976;20.144;2024-03-08T05:32:32;139.05;;;51.35;;
36663;SDS011;53333;51.976;20.144;2024-03-08T05:35:05;144.23;;;58.47;;
36663;SDS011;53333;51.976;20.144;2024-03-08T05:37:38;132.93;;;53.40;;
36663;SDS011;53333;51.976;20.144;2024-03-08T05:40:12;135.25;;;55.72;;
36663;SDS011;53333;51.976;20.144;2024-03-08T05:42:50;138.77;;;57.83;;
36663;SDS011;53333;51.976;20.144;2024-03-08T05:47:56;119.80;;;49.78;;
36663;SDS011;53333;51.976;20.144;2024-03-08T05:50:29;112.28;;;48.95;;
36663;SDS011;53333;51.976;20.144;2024-03-08T05:53:02;111.25;;;52.08;;
36663;SDS011;53333;51.976;20.144;2024-03-08T05:55:35;122.15;;;50.97;;
36663;SDS011;53333;51.976;20.144;2024-03-08T05:58:09;114.65;;;49.92;;
36663;SDS011;53333;51.976;20.144;2024-03-08T06:00:42;117.07;;;50.00;;
36663;SDS011;53333;51.976;20.144;2024-03-08T06:03:20;102.68;;;47.67;;
36663;SDS011;53333;51.976;20.144;2024-03-08T06:05:53;112.10;;;48.08;;
36663;SDS011;53333;51.976;20.144;2024-03-08T06:08:27;117.60;;;46.25;;
36663;SDS011;53333;51.976;20.144;2024-03-08T06:11:02;111.22;;;47.45;;
36663;SDS011;53333;51.976;20.144;2024-03-08T06:13:36;111.57;;;45.22;;
36663;SDS011;53333;51.976;20.144;2024-03-08T06:16:09;103.97;;;48.10;;
36663;SDS011;53333;51.976;20.144;2024-03-08T06:18:42;108.53;;;50.92;;
36663;SDS011;53333;51.976;20.144;2024-03-08T06:21:15;109.30;;;48.58;;
36663;SDS011;53333;51.976;20.144;2024-03-08T06:23:48;100.28;;;46.70;;
36663;SDS011;53333;51.976;20.144;2024-03-08T06:26:21;102.97;;;44.53;;
36663;SDS011;53333;51.976;20.144;2024-03-08T06:28:58;110.00;;;52.45;;
36663;SDS011;53333;51.976;20.144;2024-03-08T06:31:31;94.90;;;47.15;;
36663;SDS011;53333;51.976;20.144;2024-03-08T06:34:04;97.88;;;46.38;;
36663;SDS011;53333;51.976;20.144;2024-03-08T06:36:39;102.82;;;47.08;;
36663;SDS011;53333;51.976;20.144;2024-03-08T06:39:12;96.97;;;45.97;;
36663;SDS011;53333;51.976;20.144;2024-03-08T06:41:45;90.13;;;46.20;;
36663;SDS011;53333;51.976;20.144;2024-03-08T06:44:20;107.23;;;48.70;;
36663;SDS011;53333;51.976;20.144;2024-03-08T06:46:53;105.80;;;49.92;;
36663;SDS011;53333;51.976;20.144;2024-03-08T06:49:29;103.13;;;47.63;;
36663;SDS011;53333;51.976;20.144;2024-03-08T06:54:35;106.88;;;47.42;;
36663;SDS011;53333;51.976;20.144;2024-03-08T06:57:08;114.13;;;48.60;;
36663;SDS011;53333;51.976;20.144;2024-03-08T06:59:43;108.93;;;50.00;;
36663;SDS011;53333;51.976;20.144;2024-03-08T07:02:16;104.40;;;49.20;;
36663;SDS011;53333;51.976;20.144;2024-03-08T07:04:49;104.75;;;49.30;;
36663;SDS011;53333;51.976;20.144;2024-03-08T07:07:24;102.32;;;50.83;;
36663;SDS011;53333;51.976;20.144;2024-03-08T07:09:58;106.40;;;52.88;;
36663;SDS011;53333;51.976;20.144;2024-03-08T07:12:30;101.53;;;50.20;;
36663;SDS011;53333;51.976;20.144;2024-03-08T07:15:06;89.90;;;46.55;;
36663;SDS011;53333;51.976;20.144;2024-03-08T07:17:39;95.80;;;46.38;;
36663;SDS011;53333;51.976;20.144;2024-03-08T07:20:12;91.07;;;48.25;;
36663;SDS011;53333;51.976;20.144;2024-03-08T07:22:47;90.72;;;46.97;;
36663;SDS011;53333;51.976;20.144;2024-03-08T07:25:22;85.95;;;45.53;;
36663;SDS011;53333;51.976;20.144;2024-03-08T07:27:55;79.72;;;42.33;;
36663;SDS011;53333;51.976;20.144;2024-03-08T07:30:30;78.18;;;41.40;;
36663;SDS011;53333;51.976;20.144;2024-03-08T07:33:20;79.10;;;40.55;;
36663;SDS011;53333;51.976;20.144;2024-03-08T07:35:54;78.20;;;41.47;;
36663;SDS011;53333;51.976;20.144;2024-03-08T07:38:27;77.28;;;40.75;;
36663;SDS011;53333;51.976;20.144;2024-03-08T07:41:01;68.90;;;39.08;;
36663;SDS011;53333;51.976;20.144;2024-03-08T07:43:36;77.93;;;37.92;;
36663;SDS011;53333;51.976;20.144;2024-03-08T07:46:10;66.13;;;37.03;;
36663;SDS011;53333;51.976;20.144;2024-03-08T07:48:44;67.43;;;37.38;;
36663;SDS011;53333;51.976;20.144;2024-03-08T07:51:17;71.53;;;39.10;;
36663;SDS011;53333;51.976;20.144;2024-03-08T07:53:50;73.63;;;38.95;;
36663;SDS011;53333;51.976;20.144;2024-03-08T07:56:23;72.78;;;40.10;;
36663;SDS011;53333;51.976;20.144;2024-03-08T07:58:56;67.00;;;37.05;;
36663;SDS011;53333;51.976;20.144;2024-03-08T08:01:31;65.60;;;36.30;;
36663;SDS011;53333;51.976;20.144;2024-03-08T08:04:05;68.95;;;37.85;;
36663;SDS011;53333;51.976;20.144;2024-03-08T08:06:38;66.13;;;38.63;;
36663;SDS011;53333;51.976;20.144;2024-03-08T08:09:12;63.25;;;36.40;;
36663;SDS011;53333;51.976;20.144;2024-03-08T08:11:46;61.75;;;38.40;;
36663;SDS011;53333;51.976;20.144;2024-03-08T08:14:19;62.75;;;36.88;;
36663;SDS011;53333;51.976;20.144;2024-03-08T08:16:53;60.90;;;36.17;;
36663;SDS011;53333;51.976;20.144;2024-03-08T08:19:28;58.95;;;36.63;;
36663;SDS011;53333;51.976;20.144;2024-03-08T08:22:01;56.20;;;35.25;;
36663;SDS011;53333;51.976;20.144;2024-03-08T08:24:34;61.03;;;37.75;;
36663;SDS011;53333;51.976;20.144;2024-03-08T08:27:08;46.97;;;29.77;;
36663;SDS011;53333;51.976;20.144;2024-03-08T08:29:43;53.80;;;32.08;;
36663;SDS011;53333;51.976;20.144;2024-03-08T08:32:18;47.88;;;29.02;;
36663;SDS011;53333;51.976;20.144;2024-03-08T08:34:51;42.47;;;29.20;;
36663;SDS011;53333;51.976;20.144;2024-03-08T08:37:24;45.33;;;31.45;;
36663;SDS011;53333;51.976;20.144;2024-03-08T08:39:57;48.08;;;32.17;;
36663;SDS011;53333;51.976;20.144;2024-03-08T08:42:30;48.38;;;32.38;;
36663;SDS011;53333;51.976;20.144;2024-03-08T08:45:03;49.03;;;29.80;;
36663;SDS011;53333;51.976;20.144;2024-03-08T08:47:48;36.30;;;26.15;;
36663;SDS011;53333;51.976;20.144;2024-03-08T08:50:21;33.38;;;23.60;;
36663;SDS011;53333;51.976;20.144;2024-03-08T08:52:55;27.95;;;19.58;;
36663;SDS011;53333;51.976;20.144;2024-03-08T08:55:30;44.00;;;24.50;;
36663;SDS011;53333;51.976;20.144;2024-03-08T08:58:03;38.67;;;25.80;;
36663;SDS011;53333;51.976;20.144;2024-03-08T09:00:35;38.45;;;24.95;;
36663;SDS011;53333;51.976;20.144;2024-03-08T09:03:10;36.95;;;24.83;;
36663;SDS011;53333;51.976;20.144;2024-03-08T09:05:43;40.78;;;27.65;;
36663;SDS011;53333;51.976;20.144;2024-03-08T09:10:49;26.23;;;17.95;;
36663;SDS011;53333;51.976;20.144;2024-03-08T09:13:22;15.75;;;11.50;;
36663;SDS011;53333;51.976;20.144;2024-03-08T09:16:03;19.05;;;14.15;;
36663;SDS011;53333;51.976;20.144;2024-03-08T09:18:39;19.15;;;13.75;;
36663;SDS011;53333;51.976;20.144;2024-03-08T09:21:13;12.82;;;10.75;;
36663;SDS011;53333;51.976;20.144;2024-03-08T09:23:46;13.38;;;9.98;;
36663;SDS011;53333;51.976;20.144;2024-03-08T09:26:24;12.15;;;10.25;;
36663;SDS011;53333;51.976;20.144;2024-03-08T09:29:00;13.68;;;11.27;;
36663;SDS011;53333;51.976;20.144;2024-03-08T09:31:33;14.68;;;12.52;;
36663;SDS011;53333;51.976;20.144;2024-03-08T09:34:07;19.13;;;12.90;;
36663;SDS011;53333;51.976;20.144;2024-03-08T09:36:45;15.70;;;12.13;;
36663;SDS011;53333;51.976;20.144;2024-03-08T09:39:18;17.95;;;12.98;;
36663;SDS011;53333;51.976;20.144;2024-03-08T09:41:54;17.25;;;12.68;;
36663;SDS011;53333;51.976;20.144;2024-03-08T09:44:27;18.73;;;12.73;;
36663;SDS011;53333;51.976;20.144;2024-03-08T09:47:01;19.58;;;13.73;;
36663;SDS011;53333;51.976;20.144;2024-03-08T09:49:35;14.10;;;11.43;;
36663;SDS011;53333;51.976;20.144;2024-03-08T09:52:09;15.18;;;11.27;;
36663;SDS011;53333;51.976;20.144;2024-03-08T09:54:44;14.60;;;10.10;;
36663;SDS011;53333;51.976;20.144;2024-03-08T09:57:16;11.80;;;8.90;;
36663;SDS011;53333;51.976;20.144;2024-03-08T09:59:51;16.63;;;10.88;;
36663;SDS011;53333;51.976;20.144;2024-03-08T10:02:24;13.15;;;8.68;;
36663;SDS011;53333;51.976;20.144;2024-03-08T10:04:59;9.63;;;7.65;;
36663;SDS011;53333;51.976;20.144;2024-03-08T10:07:34;10.18;;;7.18;;
36663;SDS011;53333;51.976;20.144;2024-03-08T10:10:07;9.55;;;8.13;;
36663;SDS011;53333;51.976;20.144;2024-03-08T10:12:43;13.32;;;9.65;;
36663;SDS011;53333;51.976;20.144;2024-03-08T10:15:17;12.63;;;10.07;;
36663;SDS011;53333;51.976;20.144;2024-03-08T10:17:51;11.02;;;9.48;;
36663;SDS011;53333;51.976;20.144;2024-03-08T10:20:26;12.95;;;9.40;;
36663;SDS011;53333;51.976;20.144;2024-03-08T10:23:00;10.73;;;9.63;;
36663;SDS011;53333;51.976;20.144;2024-03-08T10:25:42;14.77;;;11.50;;
36663;SDS011;53333;51.976;20.144;2024-03-08T10:28:15;14.60;;;11.10;;
36663;SDS011;53333;51.976;20.144;2024-03-08T10:30:48;11.88;;;9.35;;
36663;SDS011;53333;51.976;20.144;2024-03-08T10:33:21;10.52;;;9.43;;
36663;SDS011;53333;51.976;20.144;2024-03-08T10:35:55;12.23;;;10.10;;
36663;SDS011;53333;51.976;20.144;2024-03-08T10:38:30;11.32;;;9.27;;
36663;SDS011;53333;51.976;20.144;2024-03-08T10:41:07;10.50;;;8.85;;
36663;SDS011;53333;51.976;20.144;2024-03-08T10:43:56;15.13;;;10.20;;
36663;SDS011;53333;51.976;20.144;2024-03-08T10:46:52;14.88;;;11.63;;
36663;SDS011;53333;51.976;20.144;2024-03-08T10:49:37;13.25;;;11.20;;
36663;SDS011;53333;51.976;20.144;2024-03-08T10:52:13;14.38;;;11.63;;
36663;SDS011;53333;51.976;20.144;2024-03-08T10:54:48;15.27;;;12.65;;
36663;SDS011;53333;51.976;20.144;2024-03-08T10:57:21;14.38;;;12.23;;
36663;SDS011;53333;51.976;20.144;2024-03-08T10:59:55;16.05;;;12.60;;
36663;SDS011;53333;51.976;20.144;2024-03-08T11:02:30;19.45;;;13.95;;
36663;SDS011;53333;51.976;20.144;2024-03-08T11:05:03;17.38;;;13.15;;
36663;SDS011;53333;51.976;20.144;2024-03-08T11:07:38;17.60;;;13.48;;
36663;SDS011;53333;51.976;20.144;2024-03-08T11:10:23;14.00;;;12.55;;
36663;SDS011;53333;51.976;20.144;2024-03-08T11:12:58;14.75;;;12.85;;
36663;SDS011;53333;51.976;20.144;2024-03-08T11:15:30;16.33;;;12.75;;
36663;SDS011;53333;51.976;20.144;2024-03-08T11:18:03;15.88;;;13.27;;
36663;SDS011;53333;51.976;20.144;2024-03-08T11:20:41;19.38;;;14.02;;
36663;SDS011;53333;51.976;20.144;2024-03-08T11:23:17;15.57;;;13.32;;
36663;SDS011;53333;51.976;20.144;2024-03-08T11:28:30;14.85;;;12.35;;
36663;SDS011;53333;51.976;20.144;2024-03-08T11:34:04;17.35;;;13.57;;
36663;SDS011;53333;51.976;20.144;2024-03-08T11:36:48;14.40;;;12.23;;
36663;SDS011;53333;51.976;20.144;2024-03-08T11:39:22;13.02;;;11.65;;
36663;SDS011;53333;51.976;20.144;2024-03-08T11:41:55;14.88;;;12.15;;
36663;SDS011;53333;51.976;20.144;2024-03-08T11:44:28;15.65;;;12.45;;
36663;SDS011;53333;51.976;20.144;2024-03-08T11:47:01;15.68;;;11.73;;
36663;SDS011;53333;51.976;20.144;2024-03-08T11:49:35;18.13;;;13.00;;
36663;SDS011;53333;51.976;20.144;2024-03-08T11:52:10;15.40;;;11.80;;
36663;SDS011;53333;51.976;20.144;2024-03-08T11:54:52;15.07;;;11.43;;
36663;SDS011;53333;51.976;20.144;2024-03-08T11:57:29;16.00;;;12.75;;
36663;SDS011;53333;51.976;20.144;2024-03-08T12:00:02;20.00;;;13.13;;
36663;SDS011;53333;51.976;20.144;2024-03-08T12:02:39;14.90;;;11.63;;
36663;SDS011;53333;51.976;20.144;2024-03-08T12:05:14;15.73;;;12.05;;
36663;SDS011;53333;51.976;20.144;2024-03-08T12:07:55;15.90;;;12.65;;
36663;SDS011;53333;51.976;20.144;2024-03-08T12:10:30;15.32;;;12.43;;
36663;SDS011;53333;51.976;20.144;2024-03-08T12:13:03;15.35;;;12.63;;
36663;SDS011;53333;51.976;20.144;2024-03-08T12:15:44;14.35;;;12.05;;
36663;SDS011;53333;51.976;20.144;2024-03-08T12:18:18;13.80;;;11.63;;
36663;SDS011;53333;51.976;20.144;2024-03-08T12:20:51;15.52;;;12.90;;
36663;SDS011;53333;51.976;20.144;2024-03-08T12:23:24;13.93;;;12.10;;
36663;SDS011;53333;51.976;20.144;2024-03-08T12:25:58;15.52;;;12.93;;
36663;SDS011;53333;51.976;20.144;2024-03-08T12:28:45;15.70;;;13.02;;
36663;SDS011;53333;51.976;20.144;2024-03-08T12:31:19;14.68;;;11.65;;
36663;SDS011;53333;51.976;20.144;2024-03-08T12:33:54;15.23;;;11.50;;
36663;SDS011;53333;51.976;20.144;2024-03-08T12:36:30;14.88;;;11.93;;
36663;SDS011;53333;51.976;20.144;2024-03-08T12:39:03;17.75;;;12.13;;
36663;SDS011;53333;51.976;20.144;2024-03-08T12:41:40;18.83;;;12.68;;
36663;SDS011;53333;51.976;20.144;2024-03-08T12:44:12;14.90;;;11.48;;
36663;SDS011;53333;51.976;20.144;2024-03-08T12:46:45;19.98;;;14.50;;
36663;SDS011;53333;51.976;20.144;2024-03-08T12:49:23;14.65;;;10.68;;
36663;SDS011;53333;51.976;20.144;2024-03-08T12:51:57;14.90;;;11.88;;
36663;SDS011;53333;51.976;20.144;2024-03-08T12:54:29;13.75;;;11.35;;
36663;SDS011;53333;51.976;20.144;2024-03-08T12:57:06;15.55;;;11.30;;
36663;SDS011;53333;51.976;20.144;2024-03-08T12:59:39;13.82;;;11.30;;
36663;SDS011;53333;51.976;20.144;2024-03-08T13:02:14;17.05;;;10.80;;
36663;SDS011;53333;51.976;20.144;2024-03-08T13:04:49;17.00;;;12.00;;
36663;SDS011;53333;51.976;20.144;2024-03-08T13:07:27;15.43;;;12.07;;
36663;SDS011;53333;51.976;20.144;2024-03-08T13:12:33;15.30;;;11.57;;
36663;SDS011;53333;51.976;20.144;2024-03-08T13:15:09;16.63;;;11.45;;
36663;SDS011;53333;51.976;20.144;2024-03-08T13:17:46;14.65;;;10.98;;
36663;SDS011;53333;51.976;20.144;2024-03-08T13:20:20;18.33;;;10.82;;
36663;SDS011;53333;51.976;20.144;2024-03-08T13:23:04;17.02;;;10.77;;
36663;SDS011;53333;51.976;20.144;2024-03-08T13:25:38;16.75;;;11.25;;
36663;SDS011;53333;51.976;20.144;2024-03-08T13:28:13;16.25;;;10.88;;
36663;SDS011;53333;51.976;20.144;2024-03-08T13:30:46;17.23;;;11.18;;
36663;SDS011;53333;51.976;20.144;2024-03-08T13:33:19;15.43;;;11.75;;
36663;SDS011;53333;51.976;20.144;2024-03-08T13:38:28;13.82;;;11.40;;
36663;SDS011;53333;51.976;20.144;2024-03-08T13:41:00;18.70;;;12.27;;
36663;SDS011;53333;51.976;20.144;2024-03-08T13:43:35;31.48;;;12.85;;
36663;SDS011;53333;51.976;20.144;2024-03-08T13:46:08;18.35;;;12.10;;
36663;SDS011;53333;51.976;20.144;2024-03-08T13:51:15;19.20;;;12.53;;
36663;SDS011;53333;51.976;20.144;2024-03-08T13:53:48;19.10;;;12.57;;
36663;SDS011;53333;51.976;20.144;2024-03-08T13:56:21;16.23;;;11.00;;
36663;SDS011;53333;51.976;20.144;2024-03-08T13:58:55;19.55;;;10.85;;
36663;SDS011;53333;51.976;20.144;2024-03-08T14:01:28;18.63;;;11.32;;
36663;SDS011;53333;51.976;20.144;2024-03-08T14:04:01;21.23;;;11.93;;
36663;SDS011;53333;51.976;20.144;2024-03-08T14:09:12;21.23;;;12.18;;
36663;SDS011;53333;51.976;20.144;2024-03-08T14:11:48;17.80;;;12.38;;
36663;SDS011;53333;51.976;20.144;2024-03-08T14:14:22;20.33;;;12.93;;
36663;SDS011;53333;51.976;20.144;2024-03-08T14:16:55;20.27;;;13.00;;
36663;SDS011;53333;51.976;20.144;2024-03-08T14:19:30;20.25;;;12.23;;
36663;SDS011;53333;51.976;20.144;2024-03-08T14:22:03;34.63;;;14.07;;
36663;SDS011;53333;51.976;20.144;2024-03-08T14:24:36;22.23;;;11.80;;
36663;SDS011;53333;51.976;20.144;2024-03-08T14:27:10;21.30;;;11.77;;
36663;SDS011;53333;51.976;20.144;2024-03-08T14:32:19;17.30;;;11.10;;
36663;SDS011;53333;51.976;20.144;2024-03-08T14:34:54;22.42;;;12.27;;
36663;SDS011;53333;51.976;20.144;2024-03-08T14:37:27;23.33;;;12.63;;
36663;SDS011;53333;51.976;20.144;2024-03-08T14:40:01;17.33;;;10.65;;
36663;SDS011;53333;51.976;20.144;2024-03-08T14:42:36;21.48;;;11.60;;
36663;SDS011;53333;51.976;20.144;2024-03-08T14:45:11;21.42;;;11.73;;
36663;SDS011;53333;51.976;20.144;2024-03-08T14:47:44;22.92;;;12.80;;
36663;SDS011;53333;51.976;20.144;2024-03-08T14:50:21;23.70;;;12.18;;
36663;SDS011;53333;51.976;20.144;2024-03-08T14:52:55;22.90;;;13.07;;
36663;SDS011;53333;51.976;20.144;2024-03-08T14:55:28;24.43;;;12.43;;
36663;SDS011;53333;51.976;20.144;2024-03-08T14:58:02;20.02;;;12.10;;
36663;SDS011;53333;51.976;20.144;2024-03-08T15:00:37;19.70;;;11.63;;
36663;SDS011;53333;51.976;20.144;2024-03-08T15:03:11;18.40;;;11.50;;
36663;SDS011;53333;51.976;20.144;2024-03-08T15:05:48;23.02;;;12.48;;
36663;SDS011;53333;51.976;20.144;2024-03-08T15:08:22;18.75;;;11.77;;
36663;SDS011;53333;51.976;20.144;2024-03-08T15:10:56;21.73;;;12.52;;
36663;SDS011;53333;51.976;20.144;2024-03-08T15:13:30;18.48;;;11.63;;
36663;SDS011;53333;51.976;20.144;2024-03-08T15:16:11;24.00;;;13.15;;
36663;SDS011;53333;51.976;20.144;2024-03-08T15:18:48;21.05;;;12.75;;
36663;SDS011;53333;51.976;20.144;2024-03-08T15:21:23;25.35;;;14.15;;